Time;durP1;ratioP1;P1;durP2;ratioP2;P2;SDS_P1;SDS_P2;PMS_P1;PMS_P2;Temp;Humidity;BMP_temperature;BMP_pressure;BME280_temperature;BME280_humidity;BME280_pressure;Samples;Min_cycle;Max_cycle;Signal;HPM_P1;HPM_P2
2022/08/24 00:01:46;;;;;;;1.20;0.98;;;;;;;19.01;90.04;100332.03;4995021;28;20048;-75
2022/08/24 00:04:11;;;;;;;1.50;0.98;;;;;;;18.96;90.11;100330.22;4998801;28;20034;-74
2022/08/24 00:06:37;;;;;;;2.92;1.30;;;;;;;18.96;90.17;100341.31;4984871;28;20033;-76
2022/08/24 00:09:03;;;;;;;1.33;1.13;;;;;;;18.92;90.56;100323.72;4996123;28;20039;-75
2022/08/24 00:14:36;;;;;;;2.30;1.55;;;;;;;18.81;91.61;100339.00;4990993;28;20042;-76
2022/08/24 00:17:06;;;;;;;1.88;1.20;;;;;;;18.64;92.38;100312.88;5005243;28;20080;-75
2022/08/24 00:19:31;;;;;;;1.50;1.27;;;;;;;18.82;92.63;100341.44;5005681;28;20028;-74
2022/08/24 00:21:57;;;;;;;2.85;1.77;;;;;;;18.82;92.38;100329.53;4998751;28;20112;-76
2022/08/24 00:24:22;;;;;;;4.70;1.58;;;;;;;18.84;92.30;100339.16;5000822;28;20416;-70
2022/08/24 00:26:48;;;;;;;2.70;1.80;;;;;;;18.82;92.77;100333.13;4994090;28;20043;-73
2022/08/24 00:29:15;;;;;;;5.72;1.88;;;;;;;18.79;92.88;100331.03;5004106;28;20490;-71
2022/08/24 00:31:41;;;;;;;4.07;1.77;;;;;;;18.76;92.94;100325.28;4999086;28;20042;-73
2022/08/24 00:34:12;;;;;;;2.15;1.63;;;;;;;18.80;92.71;100329.84;4995789;28;20084;-74
2022/08/24 00:36:37;;;;;;;3.45;1.90;;;;;;;18.84;92.89;100332.81;4987573;28;20090;-71
2022/08/24 00:39:04;;;;;;;1.70;1.30;;;;;;;18.79;92.85;100327.41;4999627;28;20467;-76
2022/08/24 00:41:29;;;;;;;2.83;1.50;;;;;;;18.81;92.36;100322.38;4950202;28;20491;-73
2022/08/24 00:43:58;;;;;;;2.60;1.60;;;;;;;18.86;92.15;100327.78;4961336;28;20043;-74
2022/08/24 00:46:42;;;;;;;2.40;1.38;;;;;;;18.82;92.42;100324.00;4961111;28;20783;-73
2022/08/24 00:49:22;;;;;;;1.90;1.33;;;;;;;18.86;91.59;100327.78;4977678;28;20022;-72
2022/08/24 00:52:05;;;;;;;2.67;1.23;;;;;;;18.88;91.58;100328.28;4979461;28;20049;-73
2022/08/24 00:54:35;;;;;;;1.95;1.30;;;;;;;18.92;91.23;100323.72;4962132;28;20058;-72
2022/08/24 00:57:05;;;;;;;2.28;1.20;;;;;;;18.90;90.89;100320.47;4977888;28;20019;-73
2022/08/24 00:59:38;;;;;;;1.20;1.10;;;;;;;18.87;90.79;100310.03;4977997;28;20042;-72
2022/08/24 01:02:09;;;;;;;2.67;1.15;;;;;;;18.96;90.21;100313.59;4995238;28;20065;-74
2022/08/24 01:07:31;;;;;;;2.08;1.10;;;;;;;18.98;90.73;100311.34;4974407;28;20053;-74
2022/08/24 01:10:04;;;;;;;3.03;1.20;;;;;;;18.89;90.32;100296.66;4959232;28;20110;-73
2022/08/24 01:12:32;;;;;;;2.60;1.20;;;;;;;18.88;90.28;100303.34;4975214;28;20086;-73
2022/08/24 01:15:04;;;;;;;1.50;1.08;;;;;;;18.84;90.54;100305.09;4959909;28;20066;-74
2022/08/24 01:20:19;;;;;;;4.32;1.50;;;;;;;18.81;91.15;100311.31;4974827;28;20029;-71
2022/08/24 01:23:09;;;;;;;2.72;1.00;;;;;;;18.87;91.34;100321.13;4958174;28;20118;-72
2022/08/24 01:25:37;;;;;;;2.53;1.38;;;;;;;18.85;91.48;100315.03;4978797;28;20410;-73
2022/08/24 01:28:09;;;;;;;1.42;0.80;;;;;;;18.90;91.69;100326.00;4975430;28;20018;-74
2022/08/24 01:30:37;;;;;;;1.42;1.05;;;;;;;18.88;91.46;100308.91;4980958;28;20154;-72
2022/08/24 01:33:05;;;;;;;1.88;1.10;;;;;;;19.01;91.38;100332.03;4958729;28;20026;-71
2022/08/24 01:35:31;;;;;;;2.78;1.58;;;;;;;19.01;91.10;100332.84;4978481;28;20022;-71
2022/08/24 01:37:59;;;;;;;2.75;1.23;;;;;;;19.00;91.02;100328.44;4977937;28;20124;-72
2022/08/24 01:40:34;;;;;;;1.70;1.33;;;;;;;19.02;90.53;100326.16;4991283;28;20052;-73
2022/08/24 01:43:00;;;;;;;4.03;1.33;;;;;;;19.00;90.86;100319.34;4981018;28;20057;-74
2022/08/24 01:45:26;;;;;;;1.23;1.00;;;;;;;19.01;90.46;100320.94;4971312;28;20042;-73
2022/08/24 01:47:53;;;;;;;2.58;1.45;;;;;;;19.09;90.24;100334.00;5010643;23;20055;-72
2022/08/24 01:50:18;;;;;;;2.70;1.42;;;;;;;19.04;90.37;100336.09;4962541;28;20101;-71
2022/08/24 01:52:44;;;;;;;3.53;1.08;;;;;;;18.93;90.16;100314.25;4944414;28;20027;-71
2022/08/24 01:55:15;;;;;;;1.73;1.20;;;;;;;19.02;90.82;100328.13;5009769;28;20042;-71
2022/08/24 01:57:42;;;;;;;2.00;1.40;;;;;;;19.02;90.87;100328.94;4994201;28;20412;-71
2022/08/24 02:00:13;;;;;;;4.30;1.42;;;;;;;18.94;90.87;100320.59;4999991;28;20036;-73
2022/08/24 02:02:40;;;;;;;4.13;1.35;;;;;;;18.86;91.04;100308.38;5002148;28;20026;-71
2022/08/24 02:05:06;;;;;;;3.97;1.60;;;;;;;18.89;91.43;100321.59;4989716;28;20018;-72
2022/08/24 02:07:32;;;;;;;3.17;1.90;;;;;;;18.80;91.79;100309.66;4978812;28;20035;-71
2022/08/24 02:09:57;;;;;;;9.07;1.92;;;;;;;18.86;92.21;100336.09;4978368;28;20026;-72
2022/08/24 02:12:24;;;;;;;3.10;1.73;;;;;;;18.82;92.45;100324.00;4988982;28;20448;-72
2022/08/24 02:14:50;;;;;;;1.45;1.08;;;;;;;18.79;92.47;100336.56;4991881;28;20048;-72
2022/08/24 02:17:16;;;;;;;4.05;1.45;;;;;;;18.77;92.86;100321.41;4989140;28;20393;-72
2022/08/24 02:19:42;;;;;;;2.22;1.40;;;;;;;18.78;92.37;100329.38;4994865;28;20472;-71
2022/08/24 02:22:09;;;;;;;5.35;1.30;;;;;;;18.79;92.77;100333.78;4993040;28;20389;-70
2022/08/24 02:24:35;;;;;;;1.52;1.00;;;;;;;18.74;92.61;100322.03;4990996;28;20050;-72
2022/08/24 02:27:01;;;;;;;1.48;1.20;;;;;;;18.78;92.36;100339.66;4995620;28;20026;-71
2022/08/24 02:29:27;;;;;;;2.00;1.02;;;;;;;18.77;92.60;100335.25;4979648;28;20077;-71
2022/08/24 02:31:52;;;;;;;1.70;1.00;;;;;;;18.72;92.72;100324.31;4974405;28;20054;-70
2022/08/24 02:34:18;;;;;;;1.15;1.02;;;;;;;18.71;92.20;100319.94;4987970;28;20410;-70
2022/08/24 02:36:44;;;;;;;2.60;1.05;;;;;;;18.71;92.42;100328.25;4990600;28;20448;-71
2022/08/24 02:39:10;;;;;;;1.83;1.00;;;;;;;18.72;92.24;100329.84;4994245;28;20061;-72
2022/08/24 02:41:36;;;;;;;1.92;1.00;;;;;;;18.71;92.44;100328.25;4977590;28;20030;-72
2022/08/24 02:44:02;;;;;;;4.00;1.10;;;;;;;18.75;92.91;100331.97;4994082;28;20022;-71
2022/08/24 02:46:29;;;;;;;2.03;1.20;;;;;;;18.74;92.70;100330.34;4995096;28;20037;-72
2022/08/24 02:48:57;;;;;;;1.23;0.98;;;;;;;18.73;92.88;100339.78;4982016;28;20128;-72
2022/08/24 02:51:29;;;;;;;0.80;0.77;;;;;;;18.70;93.00;100344.03;4999143;28;20042;-71
2022/08/24 02:53:59;;;;;;;1.48;0.90;;;;;;;18.66;93.85;100338.31;4997731;28;20034;-73
2022/08/24 02:56:25;;;;;;;0.90;0.77;;;;;;;18.61;93.89;100335.69;4981793;28;20158;-72
2022/08/24 02:58:51;;;;;;;2.05;1.20;;;;;;;18.66;93.72;100346.63;4991971;28;20026;-71
2022/08/24 03:01:19;;;;;;;2.15;1.00;;;;;;;18.64;94.16;100339.78;4997342;28;20456;-72
2022/08/24 03:03:45;;;;;;;2.80;1.30;;;;;;;18.61;94.17;100337.66;4996561;28;21420;-71
2022/08/24 03:06:11;;;;;;;2.90;1.30;;;;;;;18.61;94.15;100334.88;5003322;28;20468;-73
2022/08/24 03:08:37;;;;;;;1.60;1.20;;;;;;;18.66;94.12;100341.09;4981715;28;20029;-72
2022/08/24 03:11:04;;;;;;;1.90;0.95;;;;;;;18.63;93.59;100338.97;5000518;28;20076;-71
2022/08/24 03:13:31;;;;;;;1.20;1.05;;;;;;;18.63;93.54;100338.97;4996940;28;20704;-71
2022/08/24 03:15:58;;;;;;;1.33;1.10;;;;;;;18.63;93.82;100333.44;4995009;28;20026;-71
2022/08/24 03:18:25;;;;;;;0.90;0.73;;;;;;;18.64;93.91;100351.66;4999031;28;20487;-72
2022/08/24 03:20:55;;;;;;;0.95;0.80;;;;;;;18.67;93.81;100350.22;4996402;28;20057;-72
2022/08/24 03:23:22;;;;;;;2.75;1.00;;;;;;;18.67;93.36;100351.03;5001571;28;20038;-72
2022/08/24 03:25:48;;;;;;;2.35;1.05;;;;;;;18.66;94.09;100343.88;4963863;28;20428;-73
2022/08/24 03:28:13;;;;;;;1.65;1.08;;;;;;;18.58;94.02;100339.09;4995553;28;20065;-72
2022/08/24 03:30:41;;;;;;;1.70;1.13;;;;;;;18.65;93.83;100353.31;4982447;28;20026;-73
2022/08/24 03:33:07;;;;;;;2.65;1.30;;;;;;;18.62;93.91;100342.88;4992823;28;20077;-71
2022/08/24 03:35:32;;;;;;;2.38;1.45;;;;;;;18.62;94.66;100353.16;4988075;28;20023;-72
2022/08/24 03:37:59;;;;;;;1.88;1.60;;;;;;;18.62;94.64;100345.63;4978496;28;20379;-72
2022/08/24 03:40:25;;;;;;;1.70;1.55;;;;;;;18.52;94.14;100340.41;4997375;28;20019;-72
2022/08/24 03:42:51;;;;;;;2.63;1.77;;;;;;;18.50;93.10;100337.16;4991098;28;20024;-73
2022/08/24 03:45:17;;;;;;;4.03;2.15;;;;;;;18.58;92.40;100350.19;4995467;28;20034;-73
2022/08/24 03:47:42;;;;;;;2.83;1.90;;;;;;;18.52;91.99;100348.72;4996591;28;20053;-73
2022/08/24 03:50:09;;;;;;;4.60;2.20;;;;;;;18.56;91.28;100344.16;4991693;28;20048;-72
2022/08/24 03:52:34;;;;;;;2.90;2.08;;;;;;;18.48;90.38;100331.09;4981508;28;20030;-72
2022/08/24 03:55:03;;;;;;;3.25;2.25;;;;;;;18.53;90.38;100344.81;4948706;28;20507;-73
2022/08/24 03:57:28;;;;;;;3.25;1.85;;;;;;;18.53;90.41;100343.97;4988571;28;20026;-72
2022/08/24 03:59:54;;;;;;;3.45;2.35;;;;;;;18.53;89.74;100336.50;4977659;28;20038;-72
2022/08/24 04:02:19;;;;;;;3.80;2.47;;;;;;;18.47;89.34;100323.94;4998655;28;20062;-73
2022/08/24 04:04:45;;;;;;;3.17;2.35;;;;;;;18.47;89.27;100329.47;4983057;28;20030;-73
2022/08/24 04:07:10;;;;;;;3.88;2.50;;;;;;;18.52;89.18;100342.38;4973443;28;20112;-72
2022/08/24 04:09:36;;;;;;;2.55;2.30;;;;;;;18.50;88.83;100339.91;4997299;28;20037;-72
2022/08/24 04:12:02;;;;;;;3.47;2.30;;;;;;;18.51;88.64;100333.22;4997158;28;20034;-71
2022/08/24 04:14:27;;;;;;;2.97;2.17;;;;;;;18.51;89.36;100338.75;4995334;28;20103;-72
2022/08/24 04:16:53;;;;;;;6.13;2.55;;;;;;;18.45;89.04;100337.28;4961068;28;20029;-73
2022/08/24 04:19:18;;;;;;;3.80;2.25;;;;;;;18.50;88.82;100339.91;4960813;28;20031;-72
2022/08/24 04:21:44;;;;;;;4.68;2.95;;;;;;;18.44;88.96;100330.09;4972070;28;20034;-71
2022/08/24 04:24:10;;;;;;;3.97;2.30;;;;;;;18.52;88.94;100343.19;4960812;28;20133;-73
2022/08/24 04:26:38;;;;;;;4.60;2.22;;;;;;;18.48;88.89;100331.09;4974918;28;20089;-75
2022/08/24 04:29:08;;;;;;;3.67;2.42;;;;;;;18.50;88.79;100334.38;4982972;28;20019;-73
2022/08/24 04:31:34;;;;;;;2.53;2.00;;;;;;;18.51;89.25;100329.66;5000888;28;20053;-72
2022/08/24 04:34:00;;;;;;;5.43;2.75;;;;;;;18.51;89.14;100337.97;4995386;28;20472;-72
2022/08/24 04:36:25;;;;;;;3.92;2.65;;;;;;;18.48;88.98;100336.63;4998734;28;20057;-73
2022/08/24 04:38:51;;;;;;;2.40;2.20;;;;;;;18.49;89.74;100343.81;4987282;28;20065;-72
2022/08/24 04:41:20;;;;;;;4.18;2.92;;;;;;;18.43;89.96;100336.81;4996099;28;20045;-73
2022/08/24 04:43:47;;;;;;;3.83;2.72;;;;;;;18.48;89.35;100342.19;4983698;28;20088;-72
2022/08/24 04:46:15;;;;;;;2.88;2.30;;;;;;;18.43;89.48;100325.72;4978443;28;20034;-73
2022/08/24 04:48:42;;;;;;;6.97;2.47;;;;;;;18.44;88.81;100341.19;5006409;28;20061;-73
2022/08/24 04:51:10;;;;;;;3.50;2.50;;;;;;;18.36;88.92;100344.75;5016197;28;20108;-72
2022/08/24 04:53:35;;;;;;;4.55;2.20;;;;;;;18.24;88.47;100342.59;5013532;28;20514;-72
2022/08/24 04:56:01;;;;;;;3.20;1.80;;;;;;;18.12;88.93;100340.41;5013002;28;20025;-72
2022/08/24 04:58:29;;;;;;;2.75;1.83;;;;;;;18.06;89.01;100341.69;5021656;28;20057;-72
2022/08/24 05:00:56;;;;;;;2.95;1.80;;;;;;;18.05;88.78;100346.44;5000359;28;20065;-73
2022/08/24 05:03:21;;;;;;;2.42;1.83;;;;;;;18.07;88.48;100346.09;4997368;28;20077;-74
2022/08/24 05:05:50;;;;;;;2.95;2.20;;;;;;;18.08;88.52;100361.59;5012994;28;20030;-73
2022/08/24 05:08:18;;;;;;;5.57;1.70;;;;;;;18.10;88.35;100359.31;5023489;23;20084;-72
2022/08/24 05:10:46;;;;;;;3.33;1.88;;;;;;;18.09;88.88;100358.50;4994458;28;20037;-72
2022/08/24 05:13:12;;;;;;;3.03;1.52;;;;;;;18.06;88.96;100344.47;5018449;28;20029;-72
2022/08/24 05:15:43;;;;;;;2.72;1.60;;;;;;;18.16;89.10;100357.22;5000326;28;20022;-74
2022/08/24 05:18:09;;;;;;;2.13;1.73;;;;;;;18.20;88.97;100364.56;5002397;28;20033;-73
2022/08/24 05:20:34;;;;;;;2.05;1.58;;;;;;;18.23;88.58;100352.03;5015455;28;20033;-74
2022/08/24 05:23:00;;;;;;;3.42;1.33;;;;;;;18.22;88.57;100351.19;4997113;28;20026;-73
2022/08/24 05:25:26;;;;;;;2.58;1.63;;;;;;;18.31;88.34;100360.38;5014849;28;20077;-74
2022/08/24 05:27:52;;;;;;;2.28;1.20;;;;;;;18.39;88.33;100357.97;5016941;28;20026;-74
2022/08/24 05:30:18;;;;;;;2.53;1.33;;;;;;;18.43;88.37;100361.72;5010514;28;20529;-74
2022/08/24 05:32:43;;;;;;;1.42;1.30;;;;;;;18.45;87.98;100365.78;5022297;28;20026;-72
2022/08/24 05:35:09;;;;;;;2.75;1.40;;;;;;;18.46;87.85;100363.84;5005936;28;20029;-73
2022/08/24 05:37:38;;;;;;;2.17;1.15;;;;;;;18.44;88.39;100361.41;5013417;28;20041;-74
2022/08/24 05:40:07;;;;;;;1.35;0.98;;;;;;;18.51;88.33;100363.69;5017388;28;20052;-73
2022/08/24 05:42:34;;;;;;;4.30;1.30;;;;;;;18.56;88.20;100366.31;5021590;28;20435;-73
2022/08/24 05:44:59;;;;;;;2.10;1.35;;;;;;;18.64;88.19;100376.59;4995504;28;20049;-74
2022/08/24 05:47:25;;;;;;;1.35;1.02;;;;;;;18.73;87.60;100375.81;5008046;28;20519;-72
2022/08/24 05:49:53;;;;;;;2.45;1.33;;;;;;;18.79;87.14;100369.81;4985544;28;21055;-72
2022/08/24 05:52:19;;;;;;;2.90;1.10;;;;;;;18.89;87.01;100378.97;4995080;28;20064;-75
2022/08/24 05:54:54;;;;;;;1.50;1.20;;;;;;;18.92;86.40;100372.78;4987514;28;20064;-74
2022/08/24 05:57:21;;;;;;;0.90;0.70;;;;;;;19.01;86.14;100379.13;5011555;28;20030;-74
2022/08/24 05:59:47;;;;;;;3.33;1.42;;;;;;;18.92;85.70;100356.94;5021047;28;20034;-75
2022/08/24 06:02:13;;;;;;;1.70;1.33;;;;;;;19.01;85.59;100379.13;5013271;28;20130;-73
2022/08/24 06:04:38;;;;;;;2.25;1.20;;;;;;;19.05;86.05;100387.63;5013806;28;20465;-75
2022/08/24 06:07:08;;;;;;;1.98;1.40;;;;;;;19.10;85.59;100384.69;4986733;28;20026;-72
2022/08/24 06:09:33;;;;;;;1.73;1.17;;;;;;;19.18;85.54;100389.44;5024849;28;20045;-74
2022/08/24 06:11:59;;;;;;;3.05;1.35;;;;;;;19.21;85.48;100391.53;5015998;28;20030;-74
2022/08/24 06:14:24;;;;;;;1.42;0.90;;;;;;;19.21;84.90;100393.50;5013283;28;20030;-74
2022/08/24 06:16:51;;;;;;;2.83;1.15;;;;;;;19.18;85.15;100397.75;4999091;28;20025;-75
2022/08/24 06:19:18;;;;;;;4.63;1.52;;;;;;;19.08;85.38;100378.66;5010317;28;20042;-71
2022/08/24 06:21:45;;;;;;;2.25;1.10;;;;;;;19.11;85.59;100392.66;4991548;28;20076;-76
2022/08/24 06:24:12;;;;;;;2.35;1.65;;;;;;;19.23;85.36;100400.38;5008906;28;20026;-73
2022/08/24 06:29:21;;;;;;;2.75;1.55;;;;;;;19.34;84.71;100396.09;5016073;28;20092;-74
2022/08/24 06:31:47;;;;;;;2.47;1.15;;;;;;;19.36;84.69;100399.41;5013647;28;20439;-73
2022/08/24 06:34:17;;;;;;;1.42;0.98;;;;;;;19.42;84.73;100396.44;5019101;28;20021;-74
2022/08/24 06:36:42;;;;;;;2.60;1.13;;;;;;;19.43;84.57;100404.44;4989268;28;20460;-73
2022/08/24 06:39:08;;;;;;;2.20;1.10;;;;;;;19.43;84.33;100404.44;4996603;28;20028;-73
2022/08/24 06:41:35;;;;;;;1.55;1.10;;;;;;;19.45;84.58;100406.88;5004090;28;20109;-75
2022/08/24 06:44:00;;;;;;;1.77;1.02;;;;;;;19.49;84.67;100408.69;5001593;28;20065;-74
2022/08/24 06:46:27;;;;;;;1.83;1.02;;;;;;;19.52;84.52;100404.44;5018026;28;20463;-72
2022/08/24 06:48:53;;;;;;;4.97;1.23;;;;;;;19.50;84.53;100403.94;5014166;28;20022;-70
2022/08/24 06:51:23;;;;;;;2.45;1.20;;;;;;;19.56;83.91;100405.41;5012057;28;20048;-78
2022/08/24 06:53:49;;;;;;;4.90;0.90;;;;;;;19.68;84.07;100401.97;5000815;28;20105;-75
2022/08/24 06:56:16;;;;;;;1.35;0.90;;;;;;;19.80;83.14;100413.25;5019274;28;20076;-73
2022/08/24 06:58:43;;;;;;;2.00;0.82;;;;;;;19.85;82.65;100410.28;4999572;28;20080;-74
2022/08/24 07:01:09;;;;;;;1.58;0.98;;;;;;;20.02;82.43;100409.47;5000079;28;20026;-72
2022/08/24 07:03:35;;;;;;;1.92;0.70;;;;;;;20.17;81.80;100412.84;5020857;28;20456;-71
2022/08/24 07:06:01;;;;;;;0.60;0.60;;;;;;;20.25;81.18;100414.75;5014640;28;20041;-73
2022/08/24 07:08:27;;;;;;;2.42;0.70;;;;;;;20.26;80.59;100413.63;5001218;28;20053;-71
2022/08/24 07:10:52;;;;;;;1.83;0.88;;;;;;;20.33;81.01;100408.38;4989856;28;20098;-72
2022/08/24 07:13:18;;;;;;;0.50;0.47;;;;;;;20.52;80.30;100404.38;4983521;28;20052;-73
2022/08/24 07:15:43;;;;;;;1.20;0.63;;;;;;;20.79;79.39;100421.75;5001648;28;20020;-73
2022/08/24 07:18:16;;;;;;;1.63;0.65;;;;;;;21.22;77.90;100420.69;5019592;28;20063;-74
2022/08/24 07:20:42;;;;;;;1.85;0.98;;;;;;;21.58;76.36;100422.03;5001840;28;20479;-74
2022/08/24 07:23:09;;;;;;;1.17;0.75;;;;;;;21.77;74.64;100424.31;4972835;28;20029;-73
2022/08/24 07:25:35;;;;;;;1.13;0.80;;;;;;;21.55;75.21;100425.50;5013666;28;20133;-74
2022/08/24 07:28:01;;;;;;;1.90;0.60;;;;;;;21.29;75.54;100426.50;4986134;28;20711;-73
2022/08/24 07:30:27;;;;;;;0.85;0.32;;;;;;;21.17;76.51;100418.09;5000449;28;20373;-74
2022/08/24 07:32:55;;;;;;;1.02;0.50;;;;;;;21.13;76.59;100423.53;5005877;28;20051;-72
2022/08/24 07:35:24;;;;;;;1.15;0.63;;;;;;;20.88;76.53;100428.06;4998478;28;20085;-71
2022/08/24 07:37:49;;;;;;;4.03;0.60;;;;;;;20.73;77.37;100421.97;4981577;28;20044;-72
2022/08/24 07:40:15;;;;;;;1.33;0.88;;;;;;;20.56;78.28;100416.47;4994409;28;20021;-72
2022/08/24 07:42:41;;;;;;;0.50;0.50;;;;;;;20.53;78.57;100428.22;4995040;28;20029;-72
2022/08/24 07:45:07;;;;;;;1.23;0.52;;;;;;;20.48;78.75;100432.00;4997475;28;20026;-73
2022/08/24 07:47:33;;;;;;;0.85;0.55;;;;;;;20.49;79.05;100433.63;5003504;28;20368;-73
2022/08/24 07:49:59;;;;;;;1.40;0.60;;;;;;;20.58;78.77;100437.19;4998464;28;20037;-72
2022/08/24 07:52:24;;;;;;;1.60;0.70;;;;;;;20.73;78.35;100430.31;4996972;28;20030;-73
2022/08/24 07:54:50;;;;;;;1.83;0.57;;;;;;;20.98;77.32;100447.13;4976237;28;20049;-71
2022/08/24 07:57:15;;;;;;;3.65;0.60;;;;;;;21.08;76.64;100437.59;5001500;28;20119;-73
2022/08/24 07:59:41;;;;;;;1.63;0.55;;;;;;;21.36;75.72;100442.66;4988397;28;20057;-72
2022/08/24 08:02:08;;;;;;;0.90;0.52;;;;;;;21.49;75.35;100443.53;4971750;28;20030;-72
2022/08/24 08:04:33;;;;;;;3.20;0.70;;;;;;;22.18;73.26;100449.63;5012968;28;20018;-73
2022/08/24 08:07:02;;;;;;;1.00;0.52;;;;;;;22.60;71.68;100446.72;4988536;28;20119;-71
2022/08/24 08:09:27;;;;;;;1.30;0.68;;;;;;;22.82;69.82;100446.25;4995999;28;20086;-69
2022/08/24 08:11:53;;;;;;;0.85;0.70;;;;;;;22.81;69.72;100450.22;4998159;28;20038;-73
2022/08/24 08:14:18;;;;;;;1.90;0.80;;;;;;;22.92;69.63;100455.31;5008307;28;20365;-70
2022/08/24 08:16:44;;;;;;;1.67;0.73;;;;;;;23.20;68.71;100460.19;4973899;28;20044;-70
2022/08/24 08:19:09;;;;;;;1.10;0.50;;;;;;;23.59;68.54;100455.00;5003523;28;20030;-72
2022/08/24 08:24:24;;;;;;;1.42;0.70;;;;;;;23.78;65.96;100457.94;5011825;28;20073;-71
2022/08/24 08:26:50;;;;;;;0.93;0.45;;;;;;;23.77;65.35;100461.91;5006769;28;20031;-70
2022/08/24 08:29:17;;;;;;;1.17;0.60;;;;;;;23.53;66.04;100463.59;5012566;28;20043;-73
2022/08/24 08:31:42;;;;;;;3.20;0.80;;;;;;;23.43;66.02;100452.94;4994351;28;20036;-72
2022/08/24 08:34:09;;;;;;;2.25;0.80;;;;;;;23.38;66.16;100455.97;4992675;28;20511;-72
2022/08/24 08:36:38;;;;;;;0.80;0.45;;;;;;;23.24;66.62;100461.13;4982973;28;20022;-72
2022/08/24 08:39:05;;;;;;;2.25;0.55;;;;;;;23.09;66.70;100443.91;4976233;28;20060;-71
2022/08/24 08:41:53;;;;;;;0.55;0.52;;;;;;;23.10;67.51;100453.94;4978425;28;20491;-72
2022/08/24 08:44:29;;;;;;;1.20;0.60;;;;;;;23.20;66.18;100449.03;5011536;28;20226;-72
2022/08/24 08:47:13;;;;;;;2.60;0.60;;;;;;;23.50;65.94;100449.56;5011320;28;20058;-72
2022/08/24 08:50:27;;;;;;;3.20;0.60;;;;;;;23.53;64.82;100441.28;4983427;28;20125;-70
2022/08/24 08:53:21;;;;;;;1.52;0.50;;;;;;;23.38;65.86;100450.41;4996769;28;20141;-71
2022/08/24 08:55:59;;;;;;;;;;;;;;;23.35;65.25;100462.28;4994226;28;20112;-73
2022/08/24 08:58:46;;;;;;;1.92;0.43;;;;;;;23.30;65.60;100460.50;5018627;28;19913;-72
2022/08/24 09:01:26;;;;;;;1.75;0.60;;;;;;;23.61;64.40;100447.06;5008518;28;20030;-72
2022/08/24 09:04:13;;;;;;;0.40;0.40;;;;;;;23.79;63.07;100453.19;4991025;28;20033;-72
2022/08/24 09:06:39;;;;;;;0.93;0.45;;;;;;;23.83;63.48;100454.06;5014386;28;20492;-71
2022/08/24 09:09:05;;;;;;;0.65;0.47;;;;;;;23.88;63.16;100451.06;5002920;28;20051;-72
2022/08/24 09:11:49;;;;;;;1.23;0.30;;;;;;;24.14;62.60;100453.38;4991078;28;20041;-72
2022/08/24 09:14:18;;;;;;;;;;;;;;;24.15;62.25;100457.81;4976087;28;20365;-73
2022/08/24 09:16:49;;;;;;;0.50;0.43;;;;;;;24.07;62.74;100469.94;4988236;28;20384;-72
2022/08/24 09:19:42;;;;;;;0.70;0.50;;;;;;;24.05;61.99;100456.34;4986213;28;20109;-71
2022/08/24 09:22:16;;;;;;;1.23;0.47;;;;;;;24.10;61.77;100471.22;4990085;28;20081;-72
2022/08/24 09:24:51;;;;;;;0.50;0.30;;;;;;;24.39;61.41;100465.22;4979947;28;20069;-72
2022/08/24 09:27:25;;;;;;;0.40;0.30;;;;;;;24.55;59.63;100456.84;4991524;28;20036;-72
2022/08/24 09:30:10;;;;;;;0.30;0.28;;;;;;;24.40;59.13;100461.25;4986546;28;20046;-73
2022/08/24 09:33:12;;;;;;;0.40;0.40;;;;;;;24.45;60.21;100456.56;4986543;28;20084;-71
2022/08/24 09:35:50;;;;;;;0.82;0.35;;;;;;;24.65;59.58;100454.69;4979678;28;20469;-73
2022/08/24 09:38:22;;;;;;;0.70;0.47;;;;;;;24.95;58.71;100457.03;4986951;28;20061;-72
2022/08/24 09:41:22;;;;;;;1.58;0.60;;;;;;;25.01;58.31;100455.56;4991711;28;20076;-74
2022/08/24 09:44:25;;;;;;;2.05;0.43;;;;;;;25.08;57.66;100438.94;4983247;28;20026;-76
2022/08/24 09:47:28;;;;;;;3.00;0.60;;;;;;;25.66;55.46;100451.44;4990976;28;20373;-74
2022/08/24 09:50:36;;;;;;;0.95;0.20;;;;;;;25.83;54.58;100445.38;4983624;28;20026;-72
2022/08/24 09:53:32;;;;;;;0.55;0.30;;;;;;;26.17;52.22;100437.25;4997404;28;20066;-73
2022/08/24 09:56:10;;;;;;;0.90;0.30;;;;;;;26.20;53.03;100456.09;4995121;28;20037;-73
2022/08/24 09:59:27;;;;;;;0.90;0.30;;;;;;;26.01;52.60;100467.38;4983410;28;20030;-72
2022/08/24 10:02:29;;;;;;;0.38;0.20;;;;;;;25.61;53.78;100450.53;4957235;28;20129;-72
2022/08/24 10:05:32;;;;;;;2.33;0.60;;;;;;;25.35;54.53;100461.53;5005731;28;20440;-73
2022/08/24 10:08:33;;;;;;;0.52;0.25;;;;;;;25.37;54.15;100464.81;4981443;28;20041;-73
2022/08/24 10:11:29;;;;;;;0.35;0.22;;;;;;;25.33;54.18;100463.91;4956757;28;20051;-72
2022/08/24 10:14:00;;;;;;;1.10;0.47;;;;;;;25.16;54.72;100459.50;4998973;28;20022;-73
2022/08/24 10:17:19;;;;;;;0.50;0.40;;;;;;;24.84;55.88;100457.56;5001110;28;20022;-74
2022/08/24 10:20:02;;;;;;;1.90;0.35;;;;;;;24.73;56.85;100453.72;5001522;28;20083;-74
2022/08/24 10:23:00;;;;;;;1.48;0.50;;;;;;;24.63;56.83;100457.03;5034450;28;20021;-74
2022/08/24 10:25:34;;;;;;;1.33;0.30;;;;;;;24.38;57.83;100455.19;4976516;28;20428;-75
2022/08/24 10:28:00;;;;;;;0.65;0.30;;;;;;;24.36;58.38;100456.75;5023132;28;20030;-73
2022/08/24 10:30:47;;;;;;;0.68;0.40;;;;;;;24.49;57.51;100455.50;4999815;28;20059;-72
2022/08/24 10:33:18;;;;;;;0.57;0.40;;;;;;;24.57;57.24;100453.69;5034038;28;20032;-75
2022/08/24 10:36:06;;;;;;;0.30;0.30;;;;;;;24.53;57.50;100453.59;5016398;28;20017;-73
2022/08/24 10:41:45;;;;;;;1.70;0.40;;;;;;;24.44;57.73;100446.56;5016691;28;20197;-73
2022/08/24 10:44:41;;;;;;;2.35;0.65;;;;;;;24.82;56.35;100442.34;5023677;28;20472;-73
2022/08/24 10:47:27;;;;;;;2.50;0.32;;;;;;;24.61;56.89;100448.22;5017346;28;20026;-74
2022/08/24 10:50:11;;;;;;;0.20;0.20;;;;;;;24.46;57.30;100439.44;4988331;28;20035;-73
2022/08/24 10:53:01;;;;;;;;;;;;;;;24.34;56.54;100439.50;5011844;28;20051;-73
2022/08/24 10:55:30;;;;;;;0.90;0.40;;;;;;;24.31;57.35;100431.84;5012015;28;19963;-72
2022/08/24 10:58:12;;;;;;;0.30;0.30;;;;;;;24.33;57.50;100416.34;4998545;28;20122;-73
2022/08/24 11:00:38;;;;;;;0.73;0.22;;;;;;;24.55;56.98;100428.88;5009703;28;20476;-74
2022/08/24 11:03:05;;;;;;;1.33;0.40;;;;;;;24.57;56.84;100448.09;5025937;28;20030;-73
2022/08/24 11:05:46;;;;;;;0.30;0.30;;;;;;;24.55;57.51;100439.25;5018823;28;20034;-74
2022/08/24 11:08:21;;;;;;;0.82;0.40;;;;;;;24.63;57.49;100438.28;5017687;28;20022;-72
2022/08/24 11:11:12;;;;;;;3.15;0.30;;;;;;;24.76;56.25;100439.00;5023362;28;20122;-72
2022/08/24 11:14:01;;;;;;;3.05;0.50;;;;;;;24.80;56.51;100442.69;5005593;28;21193;-71
2022/08/24 11:16:31;;;;;;;0.40;0.40;;;;;;;25.00;56.23;100437.16;5009554;28;20022;-73
2022/08/24 11:19:00;;;;;;;0.35;0.35;;;;;;;25.27;55.63;100446.56;5016919;28;20027;-73
2022/08/24 11:21:40;;;;;;;0.50;0.30;;;;;;;25.15;55.25;100444.72;5031259;28;20033;-73
2022/08/24 11:24:17;;;;;;;0.50;0.43;;;;;;;24.97;55.55;100432.28;4982935;28;20061;-73
2022/08/24 11:26:51;;;;;;;0.70;0.40;;;;;;;24.89;55.48;100443.31;5018796;28;20137;-72
2022/08/24 11:29:17;;;;;;;0.52;0.45;;;;;;;24.90;56.34;100432.94;5018225;28;20102;-72
2022/08/24 11:31:49;;;;;;;0.32;0.28;;;;;;;24.95;56.07;100429.06;4999514;28;20496;-72
2022/08/24 11:34:30;;;;;;;0.20;0.20;;;;;;;25.05;54.73;100439.69;5013905;28;20033;-73
2022/08/24 11:36:56;;;;;;;2.15;0.70;;;;;;;25.01;55.20;100428.38;5016229;28;20468;-73
2022/08/24 11:39:37;;;;;;;0.40;0.30;;;;;;;25.14;55.48;100437.47;4981364;28;20040;-72
2022/08/24 11:42:33;;;;;;;1.10;0.40;;;;;;;25.10;55.18;100436.59;5016600;28;20057;-73
2022/08/24 11:45:11;;;;;;;1.33;0.40;;;;;;;25.38;54.67;100441.25;5028042;28;20026;-74
2022/08/24 11:47:46;;;;;;;1.63;0.40;;;;;;;25.32;54.72;100437.94;5022220;28;20131;-73
2022/08/24 11:50:32;;;;;;;1.02;0.30;;;;;;;25.33;54.79;100433.13;5013558;28;20025;-73
2022/08/24 11:53:16;;;;;;;0.47;0.38;;;;;;;25.22;54.90;100441.28;4999569;28;20056;-73
2022/08/24 11:55:59;;;;;;;0.40;0.30;;;;;;;25.12;55.40;100434.25;5007201;28;20477;-73
2022/08/24 11:58:47;;;;;;;0.25;0.25;;;;;;;25.06;55.03;100430.91;4996937;28;20033;-73
2022/08/24 12:01:24;;;;;;;0.30;0.30;;;;;;;25.28;55.20;100442.59;4999097;28;20041;-73
2022/08/24 12:04:04;;;;;;;2.80;0.55;;;;;;;25.32;54.64;100442.69;5023285;28;20051;-74